Time;durP1;ratioP1;P1;durP2;ratioP2;P2;SDS_P1;SDS_P2;PMS_P1;PMS_P2;Temp;Humidity;BMP_temperature;BMP_pressure;BME280_temperature;BME280_humidity;BME280_pressure;Samples;Min_cycle;Max_cycle;Signal;HPM_P1;HPM_P2
2021/09/12 00:00:50;;;;;;;4.90;3.92;;;10.70;94.60;;;;;;2057713;28;20191;-66
2021/09/12 00:01:51;;;;;;;4.57;3.90;;;10.60;94.60;;;;;;2065655;28;20681;-66
2021/09/12 00:02:52;;;;;;;4.87;4.07;;;10.60;94.60;;;;;;2066484;28;20656;-65
2021/09/12 00:03:52;;;;;;;4.07;3.40;;;10.60;94.70;;;;;;2066449;28;20422;-68
2021/09/12 00:04:53;;;;;;;4.97;3.50;;;10.60;94.70;;;;;;2066489;28;20287;-66
2021/09/12 00:05:54;;;;;;;4.30;3.90;;;10.60;94.70;;;;;;2066371;28;20305;-67
2021/09/12 00:06:55;;;;;;;5.50;3.83;;;10.60;94.80;;;;;;2066369;28;20182;-68
2021/09/12 00:07:56;;;;;;;5.18;4.57;;;10.60;95.00;;;;;;2065869;28;20189;-67
2021/09/12 00:08:57;;;;;;;5.27;4.13;;;10.60;95.00;;;;;;2065548;28;20565;-65
2021/09/12 00:09:57;;;;;;;6.80;5.00;;;10.60;95.00;;;;;;2066348;28;20269;-65
2021/09/12 00:10:58;;;;;;;6.33;4.63;;;10.60;95.30;;;;;;2066290;28;20181;-68
2021/09/12 00:12:00;;;;;;;10.70;5.00;;;10.60;95.30;;;;;;2066213;28;20237;-68
2021/09/12 00:13:00;;;;;;;6.03;4.95;;;10.60;95.20;;;;;;2065777;28;20539;-66
2021/09/12 00:14:01;;;;;;;6.20;5.40;;;10.60;95.60;;;;;;2065700;28;20306;-65
2021/09/12 00:15:02;;;;;;;7.00;5.60;;;10.60;95.70;;;;;;2066464;28;20186;-66
2021/09/12 00:16:03;;;;;;;6.20;5.30;;;10.70;95.80;;;;;;2066481;28;20186;-65
2021/09/12 00:17:04;;;;;;;8.53;5.53;;;10.70;95.80;;;;;;2066309;28;20649;-65
2021/09/12 00:18:05;;;;;;;7.00;6.00;;;10.70;96.10;;;;;;2066418;28;20178;-66
2021/09/12 00:19:05;;;;;;;9.03;5.90;;;10.70;96.10;;;;;;2066707;28;20186;-66
2021/09/12 00:20:08;;;;;;;7.97;4.90;;;10.70;96.10;;;;;;2066399;28;20229;-66
2021/09/12 00:21:09;;;;;;;12.10;6.35;;;10.70;96.20;;;;;;2066167;28;20182;-66
2021/09/12 00:22:10;;;;;;;7.77;6.13;;;10.70;96.20;;;;;;2066461;28;20222;-66
2021/09/12 00:23:10;;;;;;;8.20;6.27;;;10.70;96.40;;;;;;2066498;28;20186;-66
2021/09/12 00:24:11;;;;;;;6.37;5.07;;;10.80;96.60;;;;;;2066375;28;20255;-67
2021/09/12 00:25:12;;;;;;;8.77;5.97;;;10.80;96.50;;;;;;2066570;28;20229;-66
2021/09/12 00:26:13;;;;;;;7.13;5.63;;;10.80;96.30;;;;;;2065699;28;20212;-67
2021/09/12 00:27:13;;;;;;;7.50;4.70;;;10.80;96.30;;;;;;2065828;28;20174;-66
2021/09/12 00:28:14;;;;;;;5.43;3.70;;;10.80;96.00;;;;;;2057671;28;20187;-67
2021/09/12 00:29:16;;;;;;;5.57;4.37;;;10.80;95.80;;;;;;2058077;28;20566;-66
2021/09/12 00:30:17;;;;;;;4.32;3.92;;;10.70;95.70;;;;;;2066377;28;20186;-66
2021/09/12 00:31:18;;;;;;;6.13;4.10;;;10.60;95.60;;;;;;2066352;28;20175;-67
2021/09/12 00:32:18;;;;;;;3.90;3.50;;;10.50;95.60;;;;;;2066574;28;20198;-66
2021/09/12 00:33:19;;;;;;;4.20;3.80;;;10.50;95.60;;;;;;2066545;28;20644;-66
2021/09/12 00:34:20;;;;;;;4.40;3.80;;;10.50;95.70;;;;;;2066456;28;20205;-65
2021/09/12 00:35:20;;;;;;;5.53;4.00;;;10.40;95.70;;;;;;2066379;28;20175;-66
2021/09/12 00:36:21;;;;;;;6.93;3.60;;;10.40;95.70;;;;;;2065607;28;20200;-66
2021/09/12 00:37:22;;;;;;;6.90;4.30;;;10.40;95.60;;;;;;2065708;28;20175;-65
2021/09/12 00:38:23;;;;;;;6.23;4.00;;;10.40;95.60;;;;;;2065511;28;20175;-65
2021/09/12 00:39:23;;;;;;;5.87;4.00;;;10.40;95.50;;;;;;2066225;28;20241;-66
2021/09/12 00:40:24;;;;;;;3.83;3.10;;;10.40;95.40;;;;;;2065454;28;20257;-66
2021/09/12 00:41:25;;;;;;;5.40;4.00;;;10.40;95.40;;;;;;2065468;28;20269;-66
2021/09/12 00:42:26;;;;;;;4.77;3.63;;;10.40;95.40;;;;;;2066189;28;20182;-66
2021/09/12 00:43:27;;;;;;;5.70;4.00;;;10.30;95.30;;;;;;2066236;28;20193;-66
2021/09/12 00:44:27;;;;;;;3.83;3.42;;;10.40;95.30;;;;;;2066193;28;20175;-65
2021/09/12 00:45:28;;;;;;;4.90;3.93;;;10.40;95.20;;;;;;2065982;28;20522;-66
2021/09/12 00:46:29;;;;;;;4.37;3.87;;;10.40;95.20;;;;;;2065983;28;20171;-65
2021/09/12 00:47:30;;;;;;;8.20;4.53;;;10.30;95.10;;;;;;2066381;28;20237;-65
2021/09/12 00:48:30;;;;;;;8.63;4.90;;;10.30;95.30;;;;;;2065972;28;20229;-65
2021/09/12 00:49:31;;;;;;;5.00;4.03;;;10.30;95.50;;;;;;2066312;28;20190;-65
2021/09/12 00:50:32;;;;;;;4.20;3.80;;;10.30;95.50;;;;;;2066074;28;20183;-66
2021/09/12 00:51:33;;;;;;;4.30;3.90;;;10.40;95.40;;;;;;2065656;28;20260;-65
2021/09/12 00:52:37;;;;;;;6.88;4.28;;;10.40;95.20;;;;;;2057347;28;20435;-66
2021/09/12 00:53:38;;;;;;;4.22;3.83;;;10.40;95.30;;;;;;2050198;28;20245;-66
2021/09/12 00:54:40;;;;;;;7.20;3.97;;;10.30;95.40;;;;;;2065480;28;20182;-65
2021/09/12 00:55:43;;;;;;;4.97;3.85;;;10.30;95.40;;;;;;2065704;28;20178;-65
2021/09/12 00:56:45;;;;;;;8.45;4.30;;;10.30;95.30;;;;;;2057684;28;20662;-65
2021/09/12 00:57:46;;;;;;;6.07;3.90;;;10.30;95.20;;;;;;2057556;28;20193;-66
2021/09/12 00:58:49;;;;;;;6.57;3.97;;;10.30;95.10;;;;;;2057585;28;20305;-66
2021/09/12 00:59:52;;;;;;;4.20;3.72;;;10.30;95.00;;;;;;2057658;28;20187;-66
2021/09/12 01:00:53;;;;;;;4.55;3.70;;;10.30;95.00;;;;;;2057802;28;20175;-65
2021/09/12 01:01:55;;;;;;;5.23;3.97;;;10.30;95.10;;;;;;2065097;28;20201;-66
2021/09/12 01:02:55;;;;;;;4.95;3.85;;;10.20;95.10;;;;;;2065407;28;20418;-65
2021/09/12 01:03:56;;;;;;;4.27;3.43;;;10.20;95.30;;;;;;2065276;28;20268;-65
2021/09/12 01:04:57;;;;;;;5.47;4.13;;;10.20;95.30;;;;;;2065343;28;20607;-66
2021/09/12 01:05:57;;;;;;;5.63;3.90;;;10.30;95.40;;;;;;2065315;28;20198;-65
2021/09/12 01:06:59;;;;;;;5.90;4.30;;;10.20;95.30;;;;;;2065100;28;20178;-65
2021/09/12 01:08:00;;;;;;;4.65;4.05;;;10.20;95.40;;;;;;2065482;28;20189;-66
2021/09/12 01:09:01;;;;;;;7.97;4.63;;;10.20;95.60;;;;;;2066072;28;20580;-65
2021/09/12 01:10:04;;;;;;;4.85;4.20;;;10.20;95.70;;;;;;2065264;28;20190;-66
2021/09/12 01:11:04;;;;;;;7.60;4.47;;;10.30;95.70;;;;;;2065158;28;20183;-65
2021/09/12 01:12:08;;;;;;;5.67;4.47;;;10.20;95.60;;;;;;2065758;28;20202;-66
2021/09/12 01:13:08;;;;;;;7.65;4.65;;;10.30;95.60;;;;;;2065963;28;20178;-65
2021/09/12 01:14:10;;;;;;;6.27;4.20;;;10.20;95.50;;;;;;2065269;28;20210;-66
2021/09/12 01:15:10;;;;;;;4.60;4.20;;;10.30;95.50;;;;;;2057269;28;20210;-66
2021/09/12 01:16:17;;;;;;;4.77;4.27;;;10.30;95.30;;;;;;2065322;28;20182;-65
2021/09/12 01:17:18;;;;;;;5.35;4.55;;;10.20;95.40;;;;;;2065371;28;20162;-66
2021/09/12 01:18:19;;;;;;;5.00;3.77;;;10.20;95.60;;;;;;2065256;28;20174;-65
2021/09/12 01:19:19;;;;;;;4.87;4.10;;;10.20;95.70;;;;;;2065947;28;20269;-65
2021/09/12 01:20:20;;;;;;;7.50;4.77;;;10.20;95.70;;;;;;2065924;28;20179;-67
2021/09/12 01:21:24;;;;;;;4.70;4.07;;;10.20;95.60;;;;;;2065690;28;20185;-67
2021/09/12 01:22:25;;;;;;;4.50;3.92;;;10.20;95.60;;;;;;2065762;28;20595;-67
2021/09/12 01:23:25;;;;;;;6.80;4.27;;;10.20;95.70;;;;;;2065920;28;20229;-67
2021/09/12 01:24:28;;;;;;;6.23;4.00;;;10.10;95.60;;;;;;2065880;28;20178;-67
2021/09/12 01:25:29;;;;;;;4.68;3.78;;;10.10;95.60;;;;;;2065904;28;20182;-66
2021/09/12 01:26:29;;;;;;;4.73;3.90;;;10.10;95.70;;;;;;2065911;28;20239;-67
2021/09/12 01:27:30;;;;;;;4.47;3.87;;;10.10;95.70;;;;;;2065900;28;20182;-67
2021/09/12 01:28:31;;;;;;;4.63;3.83;;;10.00;95.70;;;;;;2065599;28;20297;-67
2021/09/12 01:29:32;;;;;;;4.33;3.93;;;10.00;95.80;;;;;;2065910;28;20178;-67
2021/09/12 01:30:32;;;;;;;5.27;4.07;;;10.00;95.80;;;;;;2065904;28;20183;-68
2021/09/12 01:31:34;;;;;;;4.30;3.80;;;10.00;95.80;;;;;;2065643;28;20284;-67
2021/09/12 01:32:35;;;;;;;9.13;4.72;;;10.00;95.70;;;;;;2065800;28;20534;-67
2021/09/12 01:33:35;;;;;;;8.30;4.23;;;10.00;95.70;;;;;;2065835;28;20181;-67
2021/09/12 01:34:36;;;;;;;6.00;4.13;;;10.00;95.70;;;;;;2065650;28;20417;-66
2021/09/12 01:35:37;;;;;;;4.77;3.83;;;10.00;95.70;;;;;;2065928;28;20178;-67
2021/09/12 01:36:38;;;;;;;5.47;4.33;;;10.00;95.70;;;;;;2065960;28;20268;-67
2021/09/12 01:37:39;;;;;;;6.88;4.35;;;10.00;95.80;;;;;;2065215;28;20269;-68
2021/09/12 01:38:40;;;;;;;4.30;3.57;;;9.90;96.00;;;;;;2065169;28;20182;-67
2021/09/12 01:39:40;;;;;;;4.57;3.53;;;9.90;96.10;;;;;;2065688;28;20273;-66
2021/09/12 01:40:41;;;;;;;5.83;4.37;;;9.90;96.20;;;;;;2065550;28;20224;-67
2021/09/12 01:41:42;;;;;;;5.50;4.13;;;9.90;96.20;;;;;;2065591;28;20568;-66
2021/09/12 01:42:42;;;;;;;6.07;4.10;;;10.00;96.20;;;;;;2065662;28;20411;-67
2021/09/12 01:43:50;;;;;;;5.27;4.20;;;10.00;96.20;;;;;;2065783;28;20201;-66
2021/09/12 01:44:51;;;;;;;4.85;3.88;;;10.00;96.10;;;;;;2065738;28;20170;-67
2021/09/12 01:45:52;;;;;;;5.68;4.57;;;10.00;96.10;;;;;;2065669;28;20206;-67
2021/09/12 01:46:55;;;;;;;4.77;4.10;;;10.00;96.00;;;;;;2065767;28;20201;-67
2021/09/12 01:48:00;;;;;;;6.22;4.50;;;10.00;95.90;;;;;;2065817;28;20323;-67
2021/09/12 01:49:06;;;;;;;5.22;4.22;;;10.10;95.90;;;;;;2065567;28;20218;-66
2021/09/12 01:50:07;;;;;;;5.13;4.60;;;10.10;95.80;;;;;;2065141;28;20169;-69
2021/09/12 01:51:08;;;;;;;5.50;4.70;;;10.10;95.70;;;;;;2064887;28;20175;-67
2021/09/12 01:52:14;;;;;;;4.97;4.20;;;10.10;95.60;;;;;;2064898;28;20213;-67
2021/09/12 01:53:15;;;;;;;4.55;3.95;;;10.10;95.60;;;;;;2057695;28;20179;-67
2021/09/12 01:54:15;;;;;;;5.80;4.70;;;10.10;95.60;;;;;;2065170;28;20180;-67
2021/09/12 01:55:16;;;;;;;8.27;4.40;;;10.10;95.70;;;;;;2065568;28;20194;-64
2021/09/12 01:56:17;;;;;;;6.50;4.70;;;10.20;95.70;;;;;;2065936;28;20261;-67
2021/09/12 01:57:18;;;;;;;7.13;5.27;;;10.20;95.80;;;;;;2065794;28;20183;-67
2021/09/12 01:58:18;;;;;;;7.00;4.80;;;10.20;95.90;;;;;;2065563;28;20178;-67
2021/09/12 01:59:19;;;;;;;7.17;5.20;;;10.20;95.90;;;;;;2065600;28;20607;-67
2021/09/12 02:00:20;;;;;;;4.80;4.30;;;10.20;95.90;;;;;;2065633;28;20273;-66
2021/09/12 02:01:21;;;;;;;6.97;5.03;;;10.20;95.80;;;;;;2065230;28;20174;-67
2021/09/12 02:02:21;;;;;;;7.57;5.33;;;10.30;95.70;;;;;;2065659;28;20253;-67
2021/09/12 02:03:22;;;;;;;8.63;5.30;;;10.40;95.50;;;;;;2065598;28;20550;-66
2021/09/12 02:04:23;;;;;;;7.37;5.23;;;10.40;95.40;;;;;;2065085;28;20186;-68
2021/09/12 02:05:24;;;;;;;6.10;4.80;;;10.40;95.30;;;;;;2064975;28;20843;-67
2021/09/12 02:06:25;;;;;;;5.30;4.07;;;10.40;95.30;;;;;;2064896;28;20178;-67
2021/09/12 02:07:25;;;;;;;6.23;4.63;;;10.40;95.20;;;;;;2064970;28;20178;-66
2021/09/12 02:08:27;;;;;;;5.00;4.30;;;10.40;95.20;;;;;;2065594;28;20174;-66
2021/09/12 02:09:27;;;;;;;9.35;4.53;;;10.40;95.80;;;;;;2064914;28;20297;-67
2021/09/12 02:10:29;;;;;;;6.63;4.47;;;10.30;95.30;;;;;;2065055;28;20178;-66
2021/09/12 02:11:29;;;;;;;5.72;4.28;;;10.40;95.40;;;;;;2065218;28;20182;-67
2021/09/12 02:12:30;;;;;;;5.77;4.17;;;10.30;95.40;;;;;;2065460;28;20247;-66
2021/09/12 02:13:31;;;;;;;5.97;4.60;;;10.30;95.40;;;;;;2065692;28;20186;-66
2021/09/12 02:14:31;;;;;;;5.57;4.90;;;10.30;95.50;;;;;;2065505;28;20555;-66
2021/09/12 02:15:32;;;;;;;7.20;4.83;;;10.30;95.50;;;;;;2064927;28;20186;-67
2021/09/12 02:16:33;;;;;;;11.00;5.37;;;10.30;95.60;;;;;;2065440;28;20177;-66
2021/09/12 02:17:34;;;;;;;5.27;4.70;;;10.20;95.70;;;;;;2065525;28;20301;-66
2021/09/12 02:18:34;;;;;;;5.83;4.50;;;10.20;95.90;;;;;;2065552;28;20190;-66
2021/09/12 02:19:35;;;;;;;8.93;4.50;;;10.20;96.00;;;;;;2065460;28;20188;-66
2021/09/12 02:20:36;;;;;;;5.97;4.87;;;10.20;96.10;;;;;;2065498;28;20183;-66
2021/09/12 02:21:37;;;;;;;4.53;4.10;;;10.20;96.20;;;;;;2065149;28;20281;-66
2021/09/12 02:22:37;;;;;;;5.63;3.90;;;10.20;96.00;;;;;;2065301;28;20174;-66
2021/09/12 02:23:38;;;;;;;4.17;3.73;;;10.20;95.80;;;;;;2065397;28;20182;-66
2021/09/12 02:24:39;;;;;;;5.97;4.20;;;10.20;95.70;;;;;;2064871;28;20185;-66
2021/09/12 02:25:40;;;;;;;5.67;3.70;;;10.20;95.60;;;;;;2064906;28;20225;-67
2021/09/12 02:26:40;;;;;;;4.17;3.60;;;10.20;95.50;;;;;;2065516;28;20269;-66
2021/09/12 02:27:41;;;;;;;5.67;3.57;;;10.20;95.40;;;;;;2065491;28;20236;-66
2021/09/12 02:28:42;;;;;;;4.13;3.73;;;10.10;95.30;;;;;;2065311;28;20245;-67
2021/09/12 02:29:43;;;;;;;4.20;3.60;;;10.10;95.40;;;;;;2064834;28;20225;-65
2021/09/12 02:30:43;;;;;;;6.00;4.00;;;10.10;95.40;;;;;;2064770;28;20188;-66
2021/09/12 02:31:44;;;;;;;5.40;4.27;;;10.10;95.40;;;;;;2065247;28;20704;-66
2021/09/12 02:32:45;;;;;;;6.47;3.90;;;10.10;95.50;;;;;;2065253;28;20187;-66
2021/09/12 02:33:45;;;;;;;5.37;4.17;;;10.10;95.60;;;;;;2065503;28;20232;-65
2021/09/12 02:34:46;;;;;;;5.73;3.90;;;10.10;95.70;;;;;;2065422;28;20205;-67
2021/09/12 02:35:47;;;;;;;4.70;4.13;;;10.00;95.70;;;;;;2065326;28;20210;-66
2021/09/12 02:36:48;;;;;;;9.63;4.23;;;10.00;95.80;;;;;;2065254;28;20846;-66
2021/09/12 02:37:48;;;;;;;5.10;4.07;;;10.00;95.70;;;;;;2065438;28;20186;-67
2021/09/12 02:38:49;;;;;;;4.63;4.00;;;10.00;95.70;;;;;;2065236;28;20190;-66
2021/09/12 02:39:50;;;;;;;4.90;3.97;;;9.90;95.70;;;;;;2065437;28;20243;-65
2021/09/12 02:40:51;;;;;;;4.73;4.23;;;9.90;95.80;;;;;;2065215;28;20276;-66
2021/09/12 02:41:51;;;;;;;5.13;4.13;;;10.00;95.80;;;;;;2065150;28;20458;-65
2021/09/12 02:42:52;;;;;;;6.53;4.97;;;10.00;95.80;;;;;;2065396;28;20187;-66
2021/09/12 02:43:53;;;;;;;6.15;4.75;;;9.90;95.90;;;;;;2065436;28;20205;-66
2021/09/12 02:44:54;;;;;;;5.77;5.17;;;10.00;96.00;;;;;;2065412;28;20716;-66
2021/09/12 02:45:54;;;;;;;6.10;5.33;;;10.00;96.10;;;;;;2065381;28;20265;-66
2021/09/12 02:46:55;;;;;;;6.70;5.13;;;10.00;96.20;;;;;;2065464;28;20175;-66
2021/09/12 02:47:56;;;;;;;9.00;5.20;;;10.10;96.20;;;;;;2065342;28;20484;-66
2021/09/12 02:48:57;;;;;;;5.40;4.40;;;10.10;96.10;;;;;;2065234;28;20225;-66
2021/09/12 02:49:58;;;;;;;4.95;4.05;;;10.10;95.80;;;;;;2064639;28;20252;-66
2021/09/12 02:50:58;;;;;;;5.77;4.70;;;10.10;95.60;;;;;;2062522;28;20187;-66
2021/09/12 02:51:59;;;;;;;4.97;4.47;;;10.10;95.70;;;;;;2064899;28;20571;-66
2021/09/12 02:53:00;;;;;;;6.40;5.03;;;10.00;95.70;;;;;;2065349;28;21617;-66
2021/09/12 02:54:00;;;;;;;5.63;4.27;;;10.00;95.70;;;;;;2065294;28;20269;-66
2021/09/12 02:55:03;;;;;;;5.40;4.70;;;10.00;95.70;;;;;;2065283;28;20206;-66
2021/09/12 02:56:04;;;;;;;5.70;4.38;;;10.00;95.60;;;;;;2064847;28;20182;-65
2021/09/12 02:57:05;;;;;;;5.70;4.57;;;10.00;95.60;;;;;;2064582;28;20233;-65
2021/09/12 02:58:06;;;;;;;6.13;4.53;;;10.00;95.70;;;;;;2065475;28;20268;-66
2021/09/12 02:59:06;;;;;;;4.67;4.07;;;10.00;95.70;;;;;;2065245;28;20609;-67
2021/09/12 03:00:08;;;;;;;5.00;4.23;;;10.00;95.70;;;;;;2065166;28;20186;-66
2021/09/12 03:01:09;;;;;;;6.05;4.47;;;10.00;95.50;;;;;;2065021;28;20193;-66
2021/09/12 03:02:09;;;;;;;6.53;5.10;;;10.00;95.60;;;;;;2065345;28;20234;-67
2021/09/12 03:03:10;;;;;;;8.30;4.50;;;9.90;95.70;;;;;;2065215;28;20181;-65
2021/09/12 03:04:11;;;;;;;7.53;4.90;;;9.90;95.60;;;;;;2065329;28;20186;-66
2021/09/12 03:05:11;;;;;;;5.50;4.13;;;9.90;95.70;;;;;;2064999;28;20182;-66
2021/09/12 03:06:12;;;;;;;8.10;4.60;;;9.90;95.70;;;;;;2065178;28;20245;-66
2021/09/12 03:07:13;;;;;;;5.97;4.53;;;9.90;95.90;;;;;;2065265;28;20302;-66
2021/09/12 03:08:13;;;;;;;5.10;4.60;;;9.80;95.90;;;;;;2065185;28;20197;-66
2021/09/12 03:09:14;;;;;;;4.33;3.93;;;9.80;96.00;;;;;;2065267;28;20170;-66
2021/09/12 03:10:15;;;;;;;4.77;3.80;;;9.80;95.90;;;;;;2065266;28;20309;-67
2021/09/12 03:11:15;;;;;;;5.87;3.90;;;9.80;95.80;;;;;;2064866;28;20253;-65
2021/09/12 03:12:16;;;;;;;5.23;4.00;;;9.80;95.70;;;;;;2065248;28;20261;-66
2021/09/12 03:13:17;;;;;;;4.70;3.80;;;9.80;95.50;;;;;;2065327;28;20691;-67
2021/09/12 03:14:20;;;;;;;4.00;3.60;;;9.80;95.40;;;;;;2065206;28;20668;-65
2021/09/12 03:15:21;;;;;;;3.35;3.05;;;9.80;95.10;;;;;;2065271;28;20177;-65
2021/09/12 03:16:23;;;;;;;4.17;3.60;;;9.80;94.90;;;;;;2065099;28;20224;-67
2021/09/12 03:17:24;;;;;;;4.47;3.88;;;9.80;95.00;;;;;;2065158;28;20169;-66
2021/09/12 03:18:25;;;;;;;4.80;3.70;;;9.70;95.20;;;;;;2065359;28;20205;-66
2021/09/12 03:19:25;;;;;;;5.63;3.93;;;9.70;95.30;;;;;;2065256;28;20182;-66
2021/09/12 03:20:26;;;;;;;5.20;4.07;;;9.60;95.30;;;;;;2065151;28;20268;-66
2021/09/12 03:21:27;;;;;;;5.60;4.23;;;9.60;95.60;;;;;;2064781;28;20181;-66
2021/09/12 03:22:28;;;;;;;5.00;4.13;;;9.50;95.80;;;;;;2065090;28;20192;-66
2021/09/12 03:23:28;;;;;;;5.27;4.03;;;9.50;95.80;;;;;;2065287;28;20177;-65
2021/09/12 03:24:29;;;;;;;7.60;4.17;;;9.60;96.10;;;;;;2065182;28;20186;-66
2021/09/12 03:25:31;;;;;;;10.27;4.30;;;9.60;96.10;;;;;;2065254;28;20187;-66
2021/09/12 03:26:32;;;;;;;4.15;3.75;;;9.60;96.00;;;;;;2065108;28;20185;-66
2021/09/12 03:27:33;;;;;;;4.70;4.20;;;9.60;96.00;;;;;;2065794;28;20182;-66
2021/09/12 03:28:34;;;;;;;4.88;4.38;;;9.60;95.90;;;;;;2066729;28;20272;-66
2021/09/12 03:29:34;;;;;;;7.57;4.47;;;9.60;95.80;;;;;;2066794;28;20205;-66
2021/09/12 03:30:35;;;;;;;7.80;4.27;;;9.60;95.70;;;;;;2066783;28;20196;-66
2021/09/12 03:31:36;;;;;;;6.10;4.00;;;9.60;95.80;;;;;;2066436;28;20197;-66
2021/09/12 03:32:36;;;;;;;5.60;4.40;;;9.60;95.70;;;;;;2066649;28;20243;-65
2021/09/12 03:33:37;;;;;;;5.00;3.73;;;9.60;95.60;;;;;;2066756;28;20336;-66
2021/09/12 03:34:38;;;;;;;5.53;3.80;;;9.60;95.50;;;;;;2066642;28;20960;-66
2021/09/12 03:35:38;;;;;;;3.93;3.53;;;9.60;95.40;;;;;;2066735;28;20630;-66
2021/09/12 03:36:39;;;;;;;5.53;3.67;;;9.50;95.50;;;;;;2066826;28;20182;-66
2021/09/12 03:37:40;;;;;;;5.17;3.80;;;9.50;95.40;;;;;;2066724;28;20634;-67
2021/09/12 03:38:41;;;;;;;4.17;3.43;;;9.50;95.30;;;;;;2066135;28;20273;-66
2021/09/12 03:39:42;;;;;;;4.97;4.03;;;9.50;95.40;;;;;;2066204;28;20264;-67
2021/09/12 03:40:42;;;;;;;6.13;3.80;;;9.50;95.60;;;;;;2066600;28;20189;-66
2021/09/12 03:41:43;;;;;;;5.27;3.47;;;9.50;96.00;;;;;;2066359;28;20194;-66
2021/09/12 03:42:44;;;;;;;4.43;3.70;;;9.50;95.60;;;;;;2066359;28;20185;-67
2021/09/12 03:43:45;;;;;;;4.93;3.70;;;9.50;95.60;;;;;;2066568;28;20179;-66
2021/09/12 03:44:45;;;;;;;7.40;3.87;;;9.50;95.60;;;;;;2066630;28;20652;-66
2021/09/12 03:45:46;;;;;;;6.37;3.87;;;9.50;95.70;;;;;;2065894;28;20186;-66
2021/09/12 03:46:47;;;;;;;5.17;3.90;;;9.50;95.70;;;;;;2066195;28;20182;-66
2021/09/12 03:47:47;;;;;;;5.97;4.47;;;9.50;95.70;;;;;;2066745;28;20190;-66
2021/09/12 03:48:48;;;;;;;4.97;3.93;;;9.50;95.90;;;;;;2066674;28;20210;-66
2021/09/12 03:49:49;;;;;;;7.50;4.30;;;9.50;95.90;;;;;;2066769;28;20213;-66
2021/09/12 03:50:50;;;;;;;5.93;4.07;;;9.50;95.90;;;;;;2066780;28;20213;-66
2021/09/12 03:51:51;;;;;;;6.63;4.57;;;9.50;95.90;;;;;;2065679;28;20336;-66
2021/09/12 03:52:52;;;;;;;5.80;4.60;;;9.50;95.90;;;;;;2066163;28;20175;-67
2021/09/12 03:53:52;;;;;;;5.00;4.30;;;9.50;95.90;;;;;;2066685;28;20174;-66
2021/09/12 03:54:53;;;;;;;7.47;4.17;;;9.50;95.90;;;;;;2066819;28;20186;-66
2021/09/12 03:55:54;;;;;;;5.27;4.50;;;9.60;95.90;;;;;;2066673;28;20181;-66
2021/09/12 03:56:54;;;;;;;4.73;3.93;;;9.50;95.90;;;;;;2066793;28;20181;-66
2021/09/12 03:57:55;;;;;;;5.57;4.60;;;9.60;95.90;;;;;;2066606;28;20225;-66
2021/09/12 03:58:56;;;;;;;5.87;3.90;;;9.60;95.80;;;;;;2066552;28;20186;-66
2021/09/12 03:59:56;;;;;;;4.33;3.77;;;9.60;95.80;;;;;;2066537;28;20559;-67
2021/09/12 04:00:57;;;;;;;5.87;3.97;;;9.60;95.70;;;;;;2066445;28;20217;-67
2021/09/12 04:01:58;;;;;;;5.20;3.63;;;9.60;95.50;;;;;;2066237;28;20199;-66
2021/09/12 04:02:58;;;;;;;5.27;4.37;;;9.60;95.50;;;;;;2066438;28;20231;-67
2021/09/12 04:03:59;;;;;;;5.57;4.17;;;9.50;95.60;;;;;;2066208;28;20213;-66
2021/09/12 04:05:01;;;;;;;4.93;4.17;;;9.50;95.70;;;;;;2066375;28;20268;-66
2021/09/12 04:06:02;;;;;;;5.95;4.13;;;9.50;95.80;;;;;;2065713;28;20494;-66
2021/09/12 04:07:03;;;;;;;5.47;4.20;;;9.50;95.90;;;;;;2065943;28;20300;-66
2021/09/12 04:08:04;;;;;;;4.20;3.77;;;9.50;95.70;;;;;;2066306;28;20182;-66
2021/09/12 04:09:04;;;;;;;5.10;3.77;;;9.50;95.40;;;;;;2066293;28;20213;-67
2021/09/12 04:10:06;;;;;;;5.20;4.20;;;9.50;95.40;;;;;;2066463;28;20188;-66
2021/09/12 04:11:07;;;;;;;7.15;3.95;;;9.50;95.20;;;;;;2066181;28;20177;-65
2021/09/12 04:12:08;;;;;;;4.30;3.90;;;9.50;95.20;;;;;;2066277;28;20209;-66
2021/09/12 04:13:09;;;;;;;5.55;3.80;;;9.50;95.20;;;;;;2066389;28;20187;-66
2021/09/12 04:14:10;;;;;;;4.90;3.97;;;9.50;95.30;;;;;;2066484;28;20186;-66
2021/09/12 04:15:10;;;;;;;5.77;4.27;;;9.40;95.30;;;;;;2066373;28;20183;-67
2021/09/12 04:16:11;;;;;;;5.63;4.00;;;9.40;95.40;;;;;;2066374;28;20264;-66
2021/09/12 04:17:12;;;;;;;4.40;3.87;;;9.40;95.60;;;;;;2066584;28;20209;-66
2021/09/12 04:18:13;;;;;;;6.57;4.00;;;9.40;95.60;;;;;;2066409;28;20251;-66
2021/09/12 04:19:13;;;;;;;5.67;3.90;;;9.30;95.70;;;;;;2066430;28;20222;-65
2021/09/12 04:20:14;;;;;;;4.03;3.63;;;9.30;95.60;;;;;;2066270;28;20220;-66
2021/09/12 04:21:15;;;;;;;8.87;4.50;;;9.30;95.70;;;;;;2066192;28;20204;-66
2021/09/12 04:22:15;;;;;;;4.77;3.70;;;9.30;95.70;;;;;;2066408;28;20182;-65
2021/09/12 04:23:16;;;;;;;4.00;3.40;;;9.30;95.60;;;;;;2066509;28;20377;-65
2021/09/12 04:24:17;;;;;;;5.33;4.00;;;9.30;95.60;;;;;;2066199;28;20621;-66
2021/09/12 04:25:17;;;;;;;4.97;3.90;;;9.30;95.60;;;;;;2066203;28;20188;-66
2021/09/12 04:26:18;;;;;;;4.17;3.50;;;9.30;95.60;;;;;;2066150;28;20181;-66
2021/09/12 04:27:19;;;;;;;6.47;3.93;;;9.30;95.60;;;;;;2066303;28;20676;-67
2021/09/12 04:28:19;;;;;;;4.80;3.87;;;9.30;95.70;;;;;;2066159;28;20589;-66
2021/09/12 04:29:21;;;;;;;5.37;4.00;;;9.30;95.70;;;;;;2066174;28;20180;-66
2021/09/12 04:30:22;;;;;;;5.03;4.07;;;9.30;95.70;;;;;;2066159;28;20253;-67
2021/09/12 04:31:23;;;;;;;4.83;4.30;;;9.30;95.70;;;;;;2065767;28;20179;-67
2021/09/12 04:32:24;;;;;;;5.87;4.30;;;9.40;95.80;;;;;;2066246;28;20178;-66
2021/09/12 04:33:24;;;;;;;4.77;4.20;;;9.30;96.00;;;;;;2066012;28;20261;-66
2021/09/12 04:34:25;;;;;;;7.50;4.57;;;9.30;96.00;;;;;;2066225;28;20268;-66
2021/09/12 04:35:26;;;;;;;6.77;4.63;;;9.30;96.10;;;;;;2066171;28;20264;-66
2021/09/12 04:36:26;;;;;;;7.23;4.80;;;9.40;96.10;;;;;;2066162;28;20186;-66
2021/09/12 04:37:27;;;;;;;5.67;4.83;;;9.40;96.30;;;;;;2066029;28;20181;-66
2021/09/12 04:38:28;;;;;;;5.70;4.50;;;9.40;96.30;;;;;;2065597;28;20179;-67
2021/09/12 04:39:28;;;;;;;4.93;4.43;;;9.40;96.20;;;;;;2066104;28;20181;-66
2021/09/12 04:40:30;;;;;;;5.50;4.43;;;9.50;96.20;;;;;;2066087;28;20545;-67
2021/09/12 04:41:31;;;;;;;5.30;4.22;;;9.50;96.20;;;;;;2065058;28;20577;-65
2021/09/12 04:42:33;;;;;;;9.03;4.30;;;9.50;96.00;;;;;;2065466;28;20226;-66
2021/09/12 04:43:34;;;;;;;5.57;4.60;;;9.50;95.90;;;;;;2065945;28;20273;-67
2021/09/12 04:44:34;;;;;;;4.40;4.00;;;9.50;95.90;;;;;;2066137;28;20236;-66
2021/09/12 04:45:35;;;;;;;5.33;4.43;;;9.50;95.90;;;;;;2066045;28;20606;-67
2021/09/12 04:46:36;;;;;;;5.77;4.20;;;9.50;95.90;;;;;;2065967;28;20204;-66
2021/09/12 04:47:37;;;;;;;7.97;3.93;;;9.50;95.90;;;;;;2065926;28;20600;-66
2021/09/12 04:48:37;;;;;;;5.30;4.00;;;9.50;95.80;;;;;;2065329;28;20232;-67
2021/09/12 04:49:38;;;;;;;4.43;3.77;;;9.50;95.70;;;;;;2057269;28;20275;-66
2021/09/12 04:50:39;;;;;;;5.30;4.13;;;9.50;95.70;;;;;;2065308;28;20313;-67
2021/09/12 04:51:39;;;;;;;5.23;4.13;;;9.50;95.70;;;;;;2065093;28;20198;-67
2021/09/12 04:52:40;;;;;;;5.70;4.50;;;9.50;95.80;;;;;;2065928;28;20173;-66
2021/09/12 04:53:41;;;;;;;5.70;4.67;;;9.50;95.90;;;;;;2065789;28;20730;-66
2021/09/12 04:54:42;;;;;;;4.67;4.17;;;9.50;96.00;;;;;;2065988;28;20178;-67
2021/09/12 04:55:42;;;;;;;6.00;4.10;;;9.60;95.90;;;;;;2065928;28;20656;-66
2021/09/12 04:56:43;;;;;;;9.57;4.70;;;9.50;95.90;;;;;;2066075;28;20424;-66
2021/09/12 04:57:44;;;;;;;5.30;4.33;;;9.60;95.90;;;;;;2065798;28;20257;-67
2021/09/12 04:58:45;;;;;;;7.03;4.15;;;9.60;95.90;;;;;;2065943;28;20641;-66
2021/09/12 04:59:46;;;;;;;6.63;3.87;;;9.60;95.90;;;;;;2065871;28;20177;-66
2021/09/12 05:00:46;;;;;;;4.63;3.70;;;9.60;95.90;;;;;;2065980;28;20182;-66
2021/09/12 05:01:47;;;;;;;3.90;3.30;;;9.60;95.90;;;;;;2065616;28;20700;-66
2021/09/12 05:02:48;;;;;;;3.97;3.57;;;9.60;95.80;;;;;;2065834;28;20189;-66
2021/09/12 05:03:51;;;;;;;4.33;3.23;;;9.60;95.80;;;;;;2065944;28;20182;-66
2021/09/12 05:04:51;;;;;;;6.72;3.70;;;9.50;95.80;;;;;;2065992;28;20816;-66
2021/09/12 05:05:52;;;;;;;4.30;3.13;;;9.50;95.80;;;;;;2065799;28;20197;-66
2021/09/12 05:06:53;;;;;;;7.53;4.03;;;9.50;95.90;;;;;;2065899;28;20186;-66
2021/09/12 05:07:54;;;;;;;4.43;3.80;;;9.40;96.30;;;;;;2065763;28;20576;-66
2021/09/12 05:08:55;;;;;;;6.82;4.03;;;9.40;96.40;;;;;;2065733;28;20248;-66
2021/09/12 05:09:56;;;;;;;4.87;4.17;;;9.30;96.50;;;;;;2065875;28;20541;-66
2021/09/12 05:10:56;;;;;;;4.33;3.87;;;9.30;96.90;;;;;;2065759;28;20208;-67
2021/09/12 05:11:57;;;;;;;5.40;4.20;;;9.30;96.90;;;;;;2065633;28;20234;-66
2021/09/12 05:12:58;;;;;;;9.33;4.23;;;9.30;97.00;;;;;;2065894;28;20205;-67
2021/09/12 05:13:58;;;;;;;6.80;4.20;;;9.30;97.00;;;;;;2065234;28;20260;-66
2021/09/12 05:14:59;;;;;;;6.13;4.40;;;9.40;97.00;;;;;;2065211;28;20178;-66
2021/09/12 05:16:00;;;;;;;5.25;4.20;;;9.40;96.90;;;;;;2065766;28;20213;-67
2021/09/12 05:17:01;;;;;;;4.43;3.80;;;9.50;96.70;;;;;;2065712;28;20213;-66
2021/09/12 05:18:01;;;;;;;5.93;4.10;;;9.50;96.60;;;;;;2065745;28;20187;-66
2021/09/12 05:19:02;;;;;;;4.70;3.87;;;9.50;96.40;;;;;;2065695;28;20537;-66